Terminal Aerodrome Forecast
Issued by NWS Grand Forks, ND

Home | Current Version | Previous Version | Text Only | Print | Product List | Glossary Off
Versions: 1 2 3 4 5 6 7 8 9 10 11 12 13

521
FTUS43 KFGF 200520
TAFGFK
TAF
KGFK 200520Z 2006/2106 17007KT P6SM FEW250
     FM201300 16012KT P6SM SCT250
     FM201600 17017G26KT P6SM SCT250
     FM201900 17022G32KT P6SM SCT250
     FM210000 17015G25KT P6SM SCT250=

USA.gov is the U.S. government's official web portal to all federal, state and local government web resources and services.